sensor_id;sensor_type;location;lat;lon;timestamp;P1;durP1;ratioP1;P2;durP2;ratioP2
53654;SDS011;39558;52.028;8.536;2023-06-01T00:02:05;1.38;;;0.70;;
53654;SDS011;39558;52.028;8.536;2023-06-01T00:04:31;0.93;;;0.52;;
53654;SDS011;39558;52.028;8.536;2023-06-01T00:06:57;1.73;;;0.80;;
53654;SDS011;39558;52.028;8.536;2023-06-01T00:09:26;2.38;;;0.70;;
53654;SDS011;39558;52.028;8.536;2023-06-01T00:11:52;2.70;;;0.75;;
53654;SDS011;39558;52.028;8.536;2023-06-01T00:14:18;1.05;;;0.50;;
53654;SDS011;39558;52.028;8.536;2023-06-01T00:16:44;1.45;;;0.60;;
53654;SDS011;39558;52.028;8.536;2023-06-01T00:19:10;1.50;;;0.50;;
53654;SDS011;39558;52.028;8.536;2023-06-01T00:21:36;1.75;;;0.63;;
53654;SDS011;39558;52.028;8.536;2023-06-01T00:24:02;2.05;;;0.68;;
53654;SDS011;39558;52.028;8.536;2023-06-01T00:26:28;3.20;;;0.70;;
53654;SDS011;39558;52.028;8.536;2023-06-01T00:28:57;1.80;;;0.68;;
53654;SDS011;39558;52.028;8.536;2023-06-01T00:31:23;3.88;;;0.80;;
53654;SDS011;39558;52.028;8.536;2023-06-01T00:33:50;1.00;;;0.60;;
53654;SDS011;39558;52.028;8.536;2023-06-01T00:36:16;1.30;;;0.60;;
53654;SDS011;39558;52.028;8.536;2023-06-01T00:38:42;1.70;;;0.68;;
53654;SDS011;39558;52.028;8.536;2023-06-01T00:41:08;1.25;;;0.50;;
53654;SDS011;39558;52.028;8.536;2023-06-01T00:43:34;1.50;;;0.70;;
53654;SDS011;39558;52.028;8.536;2023-06-01T00:46:00;3.28;;;0.73;;
53654;SDS011;39558;52.028;8.536;2023-06-01T00:48:26;2.75;;;0.93;;
53654;SDS011;39558;52.028;8.536;2023-06-01T00:50:52;1.90;;;0.75;;
53654;SDS011;39558;52.028;8.536;2023-06-01T00:53:18;1.65;;;0.77;;
53654;SDS011;39558;52.028;8.536;2023-06-01T00:55:45;0.93;;;0.52;;
53654;SDS011;39558;52.028;8.536;2023-06-01T00:58:11;1.85;;;0.98;;
53654;SDS011;39558;52.028;8.536;2023-06-01T01:00:40;1.42;;;0.60;;
53654;SDS011;39558;52.028;8.536;2023-06-01T01:03:06;1.23;;;0.60;;
53654;SDS011;39558;52.028;8.536;2023-06-01T01:05:34;1.33;;;0.80;;
53654;SDS011;39558;52.028;8.536;2023-06-01T01:08:03;1.33;;;0.52;;
53654;SDS011;39558;52.028;8.536;2023-06-01T01:10:33;1.63;;;0.63;;
53654;SDS011;39558;52.028;8.536;2023-06-01T01:15:51;1.38;;;0.63;;
53654;SDS011;39558;52.028;8.536;2023-06-01T01:18:22;0.80;;;0.50;;
53654;SDS011;39558;52.028;8.536;2023-06-01T01:20:51;1.95;;;0.60;;
53654;SDS011;39558;52.028;8.536;2023-06-01T01:23:28;1.27;;;0.75;;
53654;SDS011;39558;52.028;8.536;2023-06-01T01:28:54;2.45;;;0.88;;
53654;SDS011;39558;52.028;8.536;2023-06-01T01:31:24;3.15;;;0.85;;
53654;SDS011;39558;52.028;8.536;2023-06-01T01:33:52;1.52;;;0.55;;
53654;SDS011;39558;52.028;8.536;2023-06-01T01:36:19;1.92;;;0.68;;
53654;SDS011;39558;52.028;8.536;2023-06-01T01:38:45;1.52;;;0.60;;
53654;SDS011;39558;52.028;8.536;2023-06-01T01:41:11;1.77;;;0.60;;
53654;SDS011;39558;52.028;8.536;2023-06-01T01:43:37;1.38;;;0.70;;
53654;SDS011;39558;52.028;8.536;2023-06-01T01:46:07;1.63;;;0.80;;
53654;SDS011;39558;52.028;8.536;2023-06-01T01:48:37;2.13;;;0.80;;
53654;SDS011;39558;52.028;8.536;2023-06-01T01:51:07;2.27;;;0.80;;
53654;SDS011;39558;52.028;8.536;2023-06-01T01:53:36;2.15;;;0.80;;
53654;SDS011;39558;52.028;8.536;2023-06-01T01:56:04;1.95;;;0.73;;
53654;SDS011;39558;52.028;8.536;2023-06-01T01:58:30;1.33;;;0.52;;
53654;SDS011;39558;52.028;8.536;2023-06-01T02:00:56;2.05;;;0.80;;
53654;SDS011;39558;52.028;8.536;2023-06-01T02:03:23;2.53;;;0.70;;
53654;SDS011;39558;52.028;8.536;2023-06-01T02:05:49;2.65;;;0.90;;
53654;SDS011;39558;52.028;8.536;2023-06-01T02:08:15;1.85;;;0.65;;
53654;SDS011;39558;52.028;8.536;2023-06-01T02:10:41;1.77;;;0.70;;
53654;SDS011;39558;52.028;8.536;2023-06-01T02:13:07;1.05;;;0.50;;
53654;SDS011;39558;52.028;8.536;2023-06-01T02:15:33;1.70;;;0.70;;
53654;SDS011;39558;52.028;8.536;2023-06-01T02:17:59;1.40;;;0.70;;
53654;SDS011;39558;52.028;8.536;2023-06-01T02:20:25;1.30;;;0.52;;
53654;SDS011;39558;52.028;8.536;2023-06-01T02:22:51;2.75;;;0.90;;
53654;SDS011;39558;52.028;8.536;2023-06-01T02:25:17;1.67;;;0.73;;
53654;SDS011;39558;52.028;8.536;2023-06-01T02:27:44;2.42;;;0.63;;
53654;SDS011;39558;52.028;8.536;2023-06-01T02:30:10;2.15;;;0.80;;
53654;SDS011;39558;52.028;8.536;2023-06-01T02:32:36;2.25;;;0.70;;
53654;SDS011;39558;52.028;8.536;2023-06-01T02:35:02;1.73;;;0.80;;
53654;SDS011;39558;52.028;8.536;2023-06-01T02:37:28;1.50;;;0.70;;
53654;SDS011;39558;52.028;8.536;2023-06-01T02:39:54;2.05;;;0.90;;
53654;SDS011;39558;52.028;8.536;2023-06-01T02:42:20;2.05;;;0.73;;
53654;SDS011;39558;52.028;8.536;2023-06-01T02:44:46;1.77;;;0.80;;
53654;SDS011;39558;52.028;8.536;2023-06-01T02:47:12;1.50;;;0.75;;
53654;SDS011;39558;52.028;8.536;2023-06-01T02:49:37;1.33;;;0.57;;
53654;SDS011;39558;52.028;8.536;2023-06-01T02:52:03;2.58;;;0.88;;
53654;SDS011;39558;52.028;8.536;2023-06-01T02:54:30;1.80;;;0.60;;
53654;SDS011;39558;52.028;8.536;2023-06-01T02:56:55;2.22;;;0.77;;
53654;SDS011;39558;52.028;8.536;2023-06-01T02:59:21;1.67;;;0.60;;
53654;SDS011;39558;52.028;8.536;2023-06-01T03:01:47;1.52;;;0.70;;
53654;SDS011;39558;52.028;8.536;2023-06-01T03:04:13;2.80;;;0.82;;
53654;SDS011;39558;52.028;8.536;2023-06-01T03:06:40;1.77;;;0.75;;
53654;SDS011;39558;52.028;8.536;2023-06-01T03:09:06;3.38;;;1.00;;
53654;SDS011;39558;52.028;8.536;2023-06-01T03:11:41;2.42;;;0.90;;
53654;SDS011;39558;52.028;8.536;2023-06-01T03:14:07;2.85;;;0.88;;
53654;SDS011;39558;52.028;8.536;2023-06-01T03:16:33;4.93;;;0.70;;
53654;SDS011;39558;52.028;8.536;2023-06-01T03:19:00;1.65;;;0.88;;
53654;SDS011;39558;52.028;8.536;2023-06-01T03:21:26;2.53;;;0.85;;
53654;SDS011;39558;52.028;8.536;2023-06-01T03:23:52;1.30;;;0.70;;
53654;SDS011;39558;52.028;8.536;2023-06-01T03:26:18;1.63;;;0.88;;
53654;SDS011;39558;52.028;8.536;2023-06-01T03:28:45;2.03;;;0.80;;
53654;SDS011;39558;52.028;8.536;2023-06-01T03:31:11;1.75;;;0.75;;
53654;SDS011;39558;52.028;8.536;2023-06-01T03:33:38;1.83;;;0.70;;
53654;SDS011;39558;52.028;8.536;2023-06-01T03:36:04;3.80;;;0.85;;
53654;SDS011;39558;52.028;8.536;2023-06-01T03:38:35;1.55;;;0.60;;
53654;SDS011;39558;52.028;8.536;2023-06-01T03:41:00;1.60;;;0.68;;
53654;SDS011;39558;52.028;8.536;2023-06-01T03:43:27;2.28;;;1.08;;
53654;SDS011;39558;52.028;8.536;2023-06-01T03:45:52;1.73;;;0.90;;
53654;SDS011;39558;52.028;8.536;2023-06-01T03:48:18;2.42;;;0.80;;
53654;SDS011;39558;52.028;8.536;2023-06-01T03:50:45;3.03;;;1.10;;
53654;SDS011;39558;52.028;8.536;2023-06-01T03:53:10;2.67;;;0.70;;
53654;SDS011;39558;52.028;8.536;2023-06-01T03:55:36;1.67;;;0.82;;
53654;SDS011;39558;52.028;8.536;2023-06-01T03:58:02;1.67;;;0.70;;
53654;SDS011;39558;52.028;8.536;2023-06-01T04:00:29;2.03;;;0.93;;
53654;SDS011;39558;52.028;8.536;2023-06-01T04:02:56;1.63;;;0.80;;
53654;SDS011;39558;52.028;8.536;2023-06-01T04:05:24;1.58;;;0.70;;
53654;SDS011;39558;52.028;8.536;2023-06-01T04:07:51;2.92;;;1.20;;
53654;SDS011;39558;52.028;8.536;2023-06-01T04:10:17;2.25;;;1.00;;
53654;SDS011;39558;52.028;8.536;2023-06-01T04:12:43;3.03;;;1.00;;
53654;SDS011;39558;52.028;8.536;2023-06-01T04:15:10;3.40;;;1.23;;
53654;SDS011;39558;52.028;8.536;2023-06-01T04:17:36;2.30;;;1.00;;
53654;SDS011;39558;52.028;8.536;2023-06-01T04:20:03;3.10;;;1.35;;
53654;SDS011;39558;52.028;8.536;2023-06-01T04:22:31;2.35;;;1.10;;
53654;SDS011;39558;52.028;8.536;2023-06-01T04:24:57;4.38;;;1.45;;
53654;SDS011;39558;52.028;8.536;2023-06-01T04:27:22;1.48;;;0.68;;
53654;SDS011;39558;52.028;8.536;2023-06-01T04:29:49;2.53;;;0.82;;
53654;SDS011;39558;52.028;8.536;2023-06-01T04:32:15;1.98;;;1.00;;
53654;SDS011;39558;52.028;8.536;2023-06-01T04:34:46;1.85;;;1.02;;
53654;SDS011;39558;52.028;8.536;2023-06-01T04:37:14;3.78;;;1.15;;
53654;SDS011;39558;52.028;8.536;2023-06-01T04:39:40;1.75;;;0.98;;
53654;SDS011;39558;52.028;8.536;2023-06-01T04:42:10;2.72;;;0.88;;
53654;SDS011;39558;52.028;8.536;2023-06-01T04:44:38;1.92;;;1.20;;
53654;SDS011;39558;52.028;8.536;2023-06-01T04:47:06;1.63;;;0.98;;
53654;SDS011;39558;52.028;8.536;2023-06-01T04:49:33;2.92;;;1.20;;
53654;SDS011;39558;52.028;8.536;2023-06-01T04:52:00;2.30;;;0.95;;
53654;SDS011;39558;52.028;8.536;2023-06-01T04:54:27;2.13;;;1.27;;
53654;SDS011;39558;52.028;8.536;2023-06-01T04:56:52;3.05;;;1.30;;
53654;SDS011;39558;52.028;8.536;2023-06-01T04:59:19;4.15;;;1.38;;
53654;SDS011;39558;52.028;8.536;2023-06-01T05:01:46;2.67;;;1.10;;
53654;SDS011;39558;52.028;8.536;2023-06-01T05:04:12;4.35;;;1.52;;
53654;SDS011;39558;52.028;8.536;2023-06-01T05:06:37;3.70;;;1.23;;
53654;SDS011;39558;52.028;8.536;2023-06-01T05:09:04;2.63;;;1.33;;
53654;SDS011;39558;52.028;8.536;2023-06-01T05:11:30;4.13;;;1.30;;
53654;SDS011;39558;52.028;8.536;2023-06-01T05:13:56;2.20;;;1.02;;
53654;SDS011;39558;52.028;8.536;2023-06-01T05:16:26;5.22;;;1.40;;
53654;SDS011;39558;52.028;8.536;2023-06-01T05:18:52;1.95;;;1.10;;
53654;SDS011;39558;52.028;8.536;2023-06-01T05:21:18;2.22;;;1.15;;
53654;SDS011;39558;52.028;8.536;2023-06-01T05:23:44;2.40;;;1.20;;
53654;SDS011;39558;52.028;8.536;2023-06-01T05:26:10;2.45;;;0.98;;
53654;SDS011;39558;52.028;8.536;2023-06-01T05:28:36;1.75;;;1.02;;
53654;SDS011;39558;52.028;8.536;2023-06-01T05:31:02;2.22;;;1.23;;
53654;SDS011;39558;52.028;8.536;2023-06-01T05:33:28;2.90;;;1.00;;
53654;SDS011;39558;52.028;8.536;2023-06-01T05:35:54;2.50;;;1.13;;
53654;SDS011;39558;52.028;8.536;2023-06-01T05:38:20;4.15;;;1.35;;
53654;SDS011;39558;52.028;8.536;2023-06-01T05:40:46;3.53;;;1.30;;
53654;SDS011;39558;52.028;8.536;2023-06-01T05:43:13;6.10;;;1.65;;
53654;SDS011;39558;52.028;8.536;2023-06-01T05:45:40;5.38;;;1.27;;
53654;SDS011;39558;52.028;8.536;2023-06-01T05:48:06;2.55;;;1.05;;
53654;SDS011;39558;52.028;8.536;2023-06-01T05:50:32;3.03;;;1.27;;
53654;SDS011;39558;52.028;8.536;2023-06-01T05:52:58;3.92;;;1.45;;
53654;SDS011;39558;52.028;8.536;2023-06-01T05:55:24;2.42;;;1.30;;
53654;SDS011;39558;52.028;8.536;2023-06-01T05:57:49;1.58;;;0.98;;
53654;SDS011;39558;52.028;8.536;2023-06-01T06:00:15;4.22;;;1.15;;
53654;SDS011;39558;52.028;8.536;2023-06-01T06:02:44;2.85;;;1.60;;
53654;SDS011;39558;52.028;8.536;2023-06-01T06:05:10;2.67;;;1.13;;
53654;SDS011;39558;52.028;8.536;2023-06-01T06:07:36;3.15;;;1.20;;
53654;SDS011;39558;52.028;8.536;2023-06-01T06:10:03;2.85;;;1.58;;
53654;SDS011;39558;52.028;8.536;2023-06-01T06:12:29;3.03;;;0.95;;
53654;SDS011;39558;52.028;8.536;2023-06-01T06:14:55;1.88;;;1.08;;
53654;SDS011;39558;52.028;8.536;2023-06-01T06:17:21;2.40;;;1.05;;
53654;SDS011;39558;52.028;8.536;2023-06-01T06:19:47;2.95;;;1.40;;
53654;SDS011;39558;52.028;8.536;2023-06-01T06:22:14;2.15;;;1.10;;
53654;SDS011;39558;52.028;8.536;2023-06-01T06:24:40;6.05;;;1.75;;
53654;SDS011;39558;52.028;8.536;2023-06-01T06:27:07;3.55;;;1.00;;
53654;SDS011;39558;52.028;8.536;2023-06-01T06:29:32;3.65;;;1.40;;
53654;SDS011;39558;52.028;8.536;2023-06-01T06:31:58;2.72;;;1.30;;
53654;SDS011;39558;52.028;8.536;2023-06-01T06:34:24;2.97;;;1.35;;
53654;SDS011;39558;52.028;8.536;2023-06-01T06:36:50;3.60;;;1.35;;
53654;SDS011;39558;52.028;8.536;2023-06-01T06:39:17;3.95;;;1.35;;
53654;SDS011;39558;52.028;8.536;2023-06-01T06:41:43;4.15;;;1.35;;
53654;SDS011;39558;52.028;8.536;2023-06-01T06:44:09;4.22;;;1.10;;
53654;SDS011;39558;52.028;8.536;2023-06-01T06:46:35;3.80;;;1.58;;
53654;SDS011;39558;52.028;8.536;2023-06-01T06:49:01;14.85;;;1.80;;
53654;SDS011;39558;52.028;8.536;2023-06-01T06:51:27;2.40;;;1.02;;
53654;SDS011;39558;52.028;8.536;2023-06-01T06:53:53;9.88;;;1.48;;
53654;SDS011;39558;52.028;8.536;2023-06-01T06:56:19;4.00;;;1.48;;
53654;SDS011;39558;52.028;8.536;2023-06-01T06:58:45;4.72;;;1.40;;
53654;SDS011;39558;52.028;8.536;2023-06-01T07:01:11;4.97;;;1.10;;
53654;SDS011;39558;52.028;8.536;2023-06-01T07:03:37;2.63;;;1.30;;
53654;SDS011;39558;52.028;8.536;2023-06-01T07:06:03;3.67;;;1.58;;
53654;SDS011;39558;52.028;8.536;2023-06-01T07:08:29;4.25;;;1.85;;
53654;SDS011;39558;52.028;8.536;2023-06-01T07:10:59;7.18;;;1.40;;
53654;SDS011;39558;52.028;8.536;2023-06-01T07:13:25;3.72;;;1.42;;
53654;SDS011;39558;52.028;8.536;2023-06-01T07:15:54;7.38;;;2.05;;
53654;SDS011;39558;52.028;8.536;2023-06-01T07:18:20;5.18;;;1.95;;
53654;SDS011;39558;52.028;8.536;2023-06-01T07:20:46;4.47;;;1.42;;
53654;SDS011;39558;52.028;8.536;2023-06-01T07:23:12;4.13;;;1.80;;
53654;SDS011;39558;52.028;8.536;2023-06-01T07:25:40;5.10;;;1.67;;
53654;SDS011;39558;52.028;8.536;2023-06-01T07:28:06;3.60;;;1.85;;
53654;SDS011;39558;52.028;8.536;2023-06-01T07:30:35;4.22;;;1.67;;
53654;SDS011;39558;52.028;8.536;2023-06-01T07:33:00;4.53;;;1.80;;
53654;SDS011;39558;52.028;8.536;2023-06-01T07:35:29;4.63;;;1.80;;
53654;SDS011;39558;52.028;8.536;2023-06-01T07:37:57;3.33;;;1.70;;
53654;SDS011;39558;52.028;8.536;2023-06-01T07:40:23;4.57;;;2.05;;
53654;SDS011;39558;52.028;8.536;2023-06-01T07:42:49;2.85;;;1.65;;
53654;SDS011;39558;52.028;8.536;2023-06-01T07:45:16;3.22;;;1.65;;
53654;SDS011;39558;52.028;8.536;2023-06-01T07:47:42;6.32;;;2.15;;
53654;SDS011;39558;52.028;8.536;2023-06-01T07:50:08;3.42;;;2.10;;
53654;SDS011;39558;52.028;8.536;2023-06-01T07:52:34;9.18;;;2.25;;
53654;SDS011;39558;52.028;8.536;2023-06-01T07:55:03;5.38;;;1.73;;
53654;SDS011;39558;52.028;8.536;2023-06-01T07:57:29;4.75;;;1.98;;
53654;SDS011;39558;52.028;8.536;2023-06-01T07:59:55;6.35;;;2.08;;
53654;SDS011;39558;52.028;8.536;2023-06-01T08:02:21;2.47;;;1.55;;
53654;SDS011;39558;52.028;8.536;2023-06-01T08:04:47;4.90;;;1.92;;
53654;SDS011;39558;52.028;8.536;2023-06-01T08:07:13;5.00;;;1.70;;
53654;SDS011;39558;52.028;8.536;2023-06-01T08:09:41;5.70;;;1.77;;
53654;SDS011;39558;52.028;8.536;2023-06-01T08:12:08;3.53;;;1.55;;
53654;SDS011;39558;52.028;8.536;2023-06-01T08:14:36;4.40;;;1.48;;
53654;SDS011;39558;52.028;8.536;2023-06-01T08:17:02;3.53;;;1.65;;
53654;SDS011;39558;52.028;8.536;2023-06-01T08:19:28;2.55;;;1.48;;
53654;SDS011;39558;52.028;8.536;2023-06-01T08:21:55;2.40;;;1.60;;
53654;SDS011;39558;52.028;8.536;2023-06-01T08:24:21;5.18;;;1.83;;
53654;SDS011;39558;52.028;8.536;2023-06-01T08:26:47;4.75;;;1.85;;
53654;SDS011;39558;52.028;8.536;2023-06-01T08:29:13;5.30;;;1.90;;
53654;SDS011;39558;52.028;8.536;2023-06-01T08:31:39;4.35;;;2.08;;
53654;SDS011;39558;52.028;8.536;2023-06-01T08:34:05;5.45;;;1.70;;
53654;SDS011;39558;52.028;8.536;2023-06-01T08:36:31;4.00;;;1.73;;
53654;SDS011;39558;52.028;8.536;2023-06-01T08:38:57;5.32;;;2.10;;
53654;SDS011;39558;52.028;8.536;2023-06-01T08:43:53;4.65;;;1.67;;
53654;SDS011;39558;52.028;8.536;2023-06-01T08:46:20;5.10;;;1.90;;
53654;SDS011;39558;52.028;8.536;2023-06-01T08:48:48;6.80;;;1.73;;
53654;SDS011;39558;52.028;8.536;2023-06-01T08:51:16;7.43;;;2.35;;
53654;SDS011;39558;52.028;8.536;2023-06-01T08:53:42;3.85;;;1.60;;
53654;SDS011;39558;52.028;8.536;2023-06-01T08:56:09;5.43;;;1.65;;
53654;SDS011;39558;52.028;8.536;2023-06-01T08:58:36;5.72;;;1.70;;
53654;SDS011;39558;52.028;8.536;2023-06-01T09:01:02;5.70;;;2.25;;
53654;SDS011;39558;52.028;8.536;2023-06-01T09:03:28;3.05;;;1.80;;
53654;SDS011;39558;52.028;8.536;2023-06-01T09:05:54;4.28;;;2.00;;
53654;SDS011;39558;52.028;8.536;2023-06-01T09:08:20;3.78;;;1.83;;
53654;SDS011;39558;52.028;8.536;2023-06-01T09:10:47;3.42;;;1.70;;
53654;SDS011;39558;52.028;8.536;2023-06-01T09:13:13;3.30;;;1.67;;
53654;SDS011;39558;52.028;8.536;2023-06-01T09:15:55;4.32;;;1.52;;
53654;SDS011;39558;52.028;8.536;2023-06-01T09:18:21;8.77;;;2.30;;
53654;SDS011;39558;52.028;8.536;2023-06-01T09:20:47;3.08;;;1.48;;
53654;SDS011;39558;52.028;8.536;2023-06-01T09:23:26;5.72;;;1.95;;
53654;SDS011;39558;52.028;8.536;2023-06-01T09:26:05;5.07;;;1.83;;
53654;SDS011;39558;52.028;8.536;2023-06-01T09:29:05;4.30;;;1.83;;
53654;SDS011;39558;52.028;8.536;2023-06-01T09:31:33;3.88;;;1.77;;
53654;SDS011;39558;52.028;8.536;2023-06-01T09:34:00;3.05;;;1.65;;
53654;SDS011;39558;52.028;8.536;2023-06-01T09:36:26;4.82;;;1.83;;
53654;SDS011;39558;52.028;8.536;2023-06-01T09:38:59;6.72;;;2.45;;
53654;SDS011;39558;52.028;8.536;2023-06-01T09:41:25;4.82;;;2.17;;
53654;SDS011;39558;52.028;8.536;2023-06-01T09:43:51;5.88;;;2.30;;
53654;SDS011;39558;52.028;8.536;2023-06-01T09:46:17;7.57;;;2.25;;
53654;SDS011;39558;52.028;8.536;2023-06-01T09:48:43;6.00;;;2.38;;
53654;SDS011;39558;52.028;8.536;2023-06-01T09:51:31;5.32;;;2.28;;
53654;SDS011;39558;52.028;8.536;2023-06-01T09:53:56;7.85;;;2.50;;
53654;SDS011;39558;52.028;8.536;2023-06-01T09:56:22;6.38;;;2.08;;
53654;SDS011;39558;52.028;8.536;2023-06-01T09:58:51;5.18;;;2.08;;
53654;SDS011;39558;52.028;8.536;2023-06-01T10:01:21;5.13;;;3.00;;
53654;SDS011;39558;52.028;8.536;2023-06-01T10:03:47;9.52;;;3.05;;
53654;SDS011;39558;52.028;8.536;2023-06-01T10:06:13;7.88;;;2.30;;
53654;SDS011;39558;52.028;8.536;2023-06-01T10:08:41;6.43;;;2.90;;
53654;SDS011;39558;52.028;8.536;2023-06-01T10:11:07;7.20;;;2.70;;
53654;SDS011;39558;52.028;8.536;2023-06-01T10:13:34;7.97;;;3.10;;
53654;SDS011;39558;52.028;8.536;2023-06-01T10:16:00;5.35;;;2.30;;
53654;SDS011;39558;52.028;8.536;2023-06-01T10:18:29;6.65;;;2.70;;
53654;SDS011;39558;52.028;8.536;2023-06-01T10:20:55;8.75;;;3.25;;
53654;SDS011;39558;52.028;8.536;2023-06-01T10:23:21;9.50;;;3.20;;
53654;SDS011;39558;52.028;8.536;2023-06-01T10:25:47;8.20;;;3.13;;
53654;SDS011;39558;52.028;8.536;2023-06-01T10:28:13;7.25;;;3.45;;
53654;SDS011;39558;52.028;8.536;2023-06-01T10:30:39;6.25;;;2.80;;
53654;SDS011;39558;52.028;8.536;2023-06-01T10:33:06;6.97;;;3.35;;
53654;SDS011;39558;52.028;8.536;2023-06-01T10:40:40;7.68;;;3.75;;
53654;SDS011;39558;52.028;8.536;2023-06-01T10:43:07;8.55;;;3.45;;
53654;SDS011;39558;52.028;8.536;2023-06-01T10:48:03;7.15;;;3.83;;
53654;SDS011;39558;52.028;8.536;2023-06-01T10:50:29;9.63;;;4.35;;
53654;SDS011;39558;52.028;8.536;2023-06-01T10:52:56;6.97;;;3.60;;
53654;SDS011;39558;52.028;8.536;2023-06-01T10:55:23;9.55;;;4.05;;
53654;SDS011;39558;52.028;8.536;2023-06-01T10:57:49;6.03;;;3.90;;
53654;SDS011;39558;52.028;8.536;2023-06-01T11:00:19;5.10;;;2.95;;
53654;SDS011;39558;52.028;8.536;2023-06-01T11:02:48;10.07;;;3.97;;
53654;SDS011;39558;52.028;8.536;2023-06-01T11:07:59;6.00;;;3.60;;
53654;SDS011;39558;52.028;8.536;2023-06-01T11:13:13;5.22;;;3.22;;
53654;SDS011;39558;52.028;8.536;2023-06-01T11:16:26;9.73;;;3.72;;
53654;SDS011;39558;52.028;8.536;2023-06-01T11:18:49;9.70;;;3.70;;
53654;SDS011;39558;52.028;8.536;2023-06-01T11:21:23;8.57;;;3.65;;
53654;SDS011;39558;52.028;8.536;2023-06-01T11:23:49;7.88;;;4.28;;
53654;SDS011;39558;52.028;8.536;2023-06-01T11:26:17;7.68;;;3.65;;
53654;SDS011;39558;52.028;8.536;2023-06-01T11:28:43;8.05;;;4.53;;
53654;SDS011;39558;52.028;8.536;2023-06-01T11:31:10;10.10;;;4.07;;
53654;SDS011;39558;52.028;8.536;2023-06-01T11:33:37;7.57;;;4.30;;
53654;SDS011;39558;52.028;8.536;2023-06-01T11:36:04;7.70;;;3.58;;
53654;SDS011;39558;52.028;8.536;2023-06-01T11:38:34;7.50;;;4.10;;
53654;SDS011;39558;52.028;8.536;2023-06-01T11:41:03;9.13;;;4.10;;
53654;SDS011;39558;52.028;8.536;2023-06-01T11:43:29;10.93;;;5.00;;
53654;SDS011;39558;52.028;8.536;2023-06-01T11:48:28;11.27;;;4.60;;
53654;SDS011;39558;52.028;8.536;2023-06-01T11:50:54;10.13;;;4.68;;
53654;SDS011;39558;52.028;8.536;2023-06-01T11:53:20;8.35;;;4.18;;
53654;SDS011;39558;52.028;8.536;2023-06-01T11:55:56;12.20;;;4.70;;
53654;SDS011;39558;52.028;8.536;2023-06-01T11:58:26;15.20;;;4.65;;
53654;SDS011;39558;52.028;8.536;2023-06-01T12:03:18;9.82;;;4.50;;
53654;SDS011;39558;52.028;8.536;2023-06-01T12:05:44;11.15;;;4.60;;
53654;SDS011;39558;52.028;8.536;2023-06-01T12:08:20;9.32;;;4.65;;
53654;SDS011;39558;52.028;8.536;2023-06-01T12:10:47;11.60;;;4.20;;
53654;SDS011;39558;52.028;8.536;2023-06-01T12:13:15;6.55;;;3.83;;
53654;SDS011;39558;52.028;8.536;2023-06-01T12:15:41;9.02;;;4.22;;
53654;SDS011;39558;52.028;8.536;2023-06-01T12:18:07;10.73;;;4.63;;
53654;SDS011;39558;52.028;8.536;2023-06-01T12:20:40;7.78;;;3.92;;
53654;SDS011;39558;52.028;8.536;2023-06-01T12:25:49;10.07;;;4.53;;
53654;SDS011;39558;52.028;8.536;2023-06-01T12:28:18;9.23;;;4.38;;
53654;SDS011;39558;52.028;8.536;2023-06-01T12:30:45;9.55;;;3.92;;
53654;SDS011;39558;52.028;8.536;2023-06-01T12:35:56;10.73;;;3.88;;
53654;SDS011;39558;52.028;8.536;2023-06-01T12:38:22;10.88;;;4.30;;
53654;SDS011;39558;52.028;8.536;2023-06-01T12:41:04;8.65;;;4.03;;
53654;SDS011;39558;52.028;8.536;2023-06-01T12:43:32;7.05;;;3.38;;
53654;SDS011;39558;52.028;8.536;2023-06-01T12:45:59;7.85;;;4.05;;
53654;SDS011;39558;52.028;8.536;2023-06-01T12:48:32;11.48;;;4.32;;
53654;SDS011;39558;52.028;8.536;2023-06-01T12:50:58;10.27;;;3.97;;
53654;SDS011;39558;52.028;8.536;2023-06-01T12:53:24;9.18;;;3.75;;
53654;SDS011;39558;52.028;8.536;2023-06-01T12:55:50;10.55;;;4.30;;
53654;SDS011;39558;52.028;8.536;2023-06-01T12:58:16;6.70;;;3.80;;
53654;SDS011;39558;52.028;8.536;2023-06-01T13:00:42;9.63;;;4.20;;
53654;SDS011;39558;52.028;8.536;2023-06-01T13:03:08;13.68;;;4.13;;
53654;SDS011;39558;52.028;8.536;2023-06-01T13:05:34;7.13;;;3.72;;
53654;SDS011;39558;52.028;8.536;2023-06-01T13:08:00;11.40;;;4.30;;
53654;SDS011;39558;52.028;8.536;2023-06-01T13:10:27;10.48;;;3.72;;
53654;SDS011;39558;52.028;8.536;2023-06-01T13:12:53;6.90;;;3.70;;
53654;SDS011;39558;52.028;8.536;2023-06-01T13:15:20;7.13;;;3.65;;
53654;SDS011;39558;52.028;8.536;2023-06-01T13:17:46;16.08;;;3.92;;
53654;SDS011;39558;52.028;8.536;2023-06-01T13:20:13;11.75;;;3.50;;
53654;SDS011;39558;52.028;8.536;2023-06-01T13:22:41;7.43;;;3.30;;
53654;SDS011;39558;52.028;8.536;2023-06-01T13:25:07;7.68;;;3.80;;
53654;SDS011;39558;52.028;8.536;2023-06-01T13:27:36;7.53;;;3.28;;
53654;SDS011;39558;52.028;8.536;2023-06-01T13:30:02;10.77;;;3.80;;
53654;SDS011;39558;52.028;8.536;2023-06-01T13:32:32;8.68;;;3.63;;
53654;SDS011;39558;52.028;8.536;2023-06-01T13:34:58;9.65;;;3.70;;
53654;SDS011;39558;52.028;8.536;2023-06-01T13:37:24;11.15;;;4.10;;
53654;SDS011;39558;52.028;8.536;2023-06-01T13:39:50;6.93;;;3.13;;
53654;SDS011;39558;52.028;8.536;2023-06-01T13:42:16;7.93;;;3.97;;
53654;SDS011;39558;52.028;8.536;2023-06-01T13:44:42;10.90;;;3.45;;
53654;SDS011;39558;52.028;8.536;2023-06-01T13:47:10;7.60;;;3.65;;
53654;SDS011;39558;52.028;8.536;2023-06-01T13:49:36;10.02;;;4.07;;
53654;SDS011;39558;52.028;8.536;2023-06-01T13:52:02;11.25;;;3.55;;
53654;SDS011;39558;52.028;8.536;2023-06-01T13:54:28;10.38;;;4.55;;
53654;SDS011;39558;52.028;8.536;2023-06-01T13:56:54;15.02;;;4.50;;
53654;SDS011;39558;52.028;8.536;2023-06-01T13:59:20;15.43;;;3.92;;
53654;SDS011;39558;52.028;8.536;2023-06-01T14:01:46;13.18;;;3.75;;
53654;SDS011;39558;52.028;8.536;2023-06-01T14:04:12;13.60;;;3.75;;
53654;SDS011;39558;52.028;8.536;2023-06-01T14:06:38;9.52;;;3.67;;
53654;SDS011;39558;52.028;8.536;2023-06-01T14:09:04;7.68;;;3.53;;
53654;SDS011;39558;52.028;8.536;2023-06-01T14:11:30;8.88;;;3.70;;
53654;SDS011;39558;52.028;8.536;2023-06-01T14:13:56;12.45;;;4.15;;
53654;SDS011;39558;52.028;8.536;2023-06-01T14:16:22;8.30;;;3.80;;
53654;SDS011;39558;52.028;8.536;2023-06-01T14:18:48;7.32;;;3.58;;
53654;SDS011;39558;52.028;8.536;2023-06-01T14:21:14;7.97;;;3.20;;
53654;SDS011;39558;52.028;8.536;2023-06-01T14:23:39;8.98;;;3.17;;
53654;SDS011;39558;52.028;8.536;2023-06-01T14:26:08;10.13;;;3.45;;
53654;SDS011;39558;52.028;8.536;2023-06-01T14:28:34;5.97;;;3.30;;
53654;SDS011;39558;52.028;8.536;2023-06-01T14:31:00;8.35;;;3.03;;
53654;SDS011;39558;52.028;8.536;2023-06-01T14:33:26;7.93;;;3.40;;
53654;SDS011;39558;52.028;8.536;2023-06-01T14:35:52;6.85;;;3.10;;
53654;SDS011;39558;52.028;8.536;2023-06-01T14:38:18;11.95;;;2.85;;
53654;SDS011;39558;52.028;8.536;2023-06-01T14:40:47;5.93;;;2.70;;
53654;SDS011;39558;52.028;8.536;2023-06-01T14:43:13;14.45;;;4.05;;
53654;SDS011;39558;52.028;8.536;2023-06-01T14:45:39;9.07;;;3.17;;
53654;SDS011;39558;52.028;8.536;2023-06-01T14:48:05;8.10;;;2.65;;
53654;SDS011;39558;52.028;8.536;2023-06-01T14:50:30;12.60;;;3.22;;
53654;SDS011;39558;52.028;8.536;2023-06-01T14:52:56;8.45;;;3.17;;
53654;SDS011;39558;52.028;8.536;2023-06-01T14:55:24;12.38;;;3.78;;
53654;SDS011;39558;52.028;8.536;2023-06-01T14:57:51;8.77;;;3.35;;
53654;SDS011;39558;52.028;8.536;2023-06-01T15:00:17;8.40;;;2.80;;
53654;SDS011;39558;52.028;8.536;2023-06-01T15:02:43;9.60;;;3.20;;
53654;SDS011;39558;52.028;8.536;2023-06-01T15:05:10;10.20;;;3.58;;
53654;SDS011;39558;52.028;8.536;2023-06-01T15:07:36;8.88;;;3.75;;
53654;SDS011;39558;52.028;8.536;2023-06-01T15:10:02;9.07;;;3.03;;
53654;SDS011;39558;52.028;8.536;2023-06-01T15:12:28;9.50;;;3.60;;
53654;SDS011;39558;52.028;8.536;2023-06-01T15:14:54;8.07;;;3.10;;
53654;SDS011;39558;52.028;8.536;2023-06-01T15:17:20;9.18;;;3.03;;